sensor_id;sensor_type;location;lat;lon;timestamp;P1;durP1;ratioP1;P2;durP2;ratioP2
12756;SDS011;31601;48.042;12.240;2023-03-01T00:02:10;18.77;;;13.23;;
12756;SDS011;31601;48.042;12.240;2023-03-01T00:04:37;19.10;;;13.43;;
12756;SDS011;31601;48.042;12.240;2023-03-01T00:07:04;29.13;;;14.83;;
12756;SDS011;31601;48.042;12.240;2023-03-01T00:09:30;19.20;;;13.70;;
12756;SDS011;31601;48.042;12.240;2023-03-01T00:11:57;18.73;;;13.37;;
12756;SDS011;31601;48.042;12.240;2023-03-01T00:14:23;21.37;;;13.83;;
12756;SDS011;31601;48.042;12.240;2023-03-01T00:16:50;18.07;;;13.27;;
12756;SDS011;31601;48.042;12.240;2023-03-01T00:19:17;18.20;;;12.53;;
12756;SDS011;31601;48.042;12.240;2023-03-01T00:21:48;20.57;;;13.37;;
12756;SDS011;31601;48.042;12.240;2023-03-01T00:24:14;19.40;;;13.70;;
12756;SDS011;31601;48.042;12.240;2023-03-01T00:26:41;19.27;;;13.53;;
12756;SDS011;31601;48.042;12.240;2023-03-01T00:29:08;21.07;;;13.97;;
12756;SDS011;31601;48.042;12.240;2023-03-01T00:31:34;17.07;;;12.67;;
12756;SDS011;31601;48.042;12.240;2023-03-01T00:34:02;18.87;;;13.57;;
12756;SDS011;31601;48.042;12.240;2023-03-01T00:36:31;17.93;;;13.50;;
12756;SDS011;31601;48.042;12.240;2023-03-01T00:39:01;20.70;;;14.87;;
12756;SDS011;31601;48.042;12.240;2023-03-01T00:41:29;19.13;;;13.10;;
12756;SDS011;31601;48.042;12.240;2023-03-01T00:43:55;20.53;;;13.37;;
12756;SDS011;31601;48.042;12.240;2023-03-01T00:46:23;17.90;;;13.97;;
12756;SDS011;31601;48.042;12.240;2023-03-01T00:48:52;20.17;;;14.47;;
12756;SDS011;31601;48.042;12.240;2023-03-01T00:51:19;20.53;;;13.80;;
12756;SDS011;31601;48.042;12.240;2023-03-01T00:53:47;20.13;;;13.97;;
12756;SDS011;31601;48.042;12.240;2023-03-01T00:56:17;19.10;;;14.53;;
12756;SDS011;31601;48.042;12.240;2023-03-01T00:58:43;19.90;;;13.53;;
12756;SDS011;31601;48.042;12.240;2023-03-01T01:01:11;18.37;;;13.47;;
12756;SDS011;31601;48.042;12.240;2023-03-01T01:03:43;20.70;;;14.80;;
12756;SDS011;31601;48.042;12.240;2023-03-01T01:06:13;16.27;;;11.07;;
12756;SDS011;31601;48.042;12.240;2023-03-01T01:08:40;28.47;;;14.17;;
12756;SDS011;31601;48.042;12.240;2023-03-01T01:11:08;23.70;;;15.40;;
12756;SDS011;31601;48.042;12.240;2023-03-01T01:13:36;18.90;;;13.00;;
12756;SDS011;31601;48.042;12.240;2023-03-01T01:16:04;18.10;;;13.80;;
12756;SDS011;31601;48.042;12.240;2023-03-01T01:18:31;20.80;;;14.63;;
12756;SDS011;31601;48.042;12.240;2023-03-01T01:20:57;19.20;;;13.33;;
12756;SDS011;31601;48.042;12.240;2023-03-01T01:23:24;19.30;;;13.47;;
12756;SDS011;31601;48.042;12.240;2023-03-01T01:25:50;18.50;;;13.60;;
12756;SDS011;31601;48.042;12.240;2023-03-01T01:28:16;17.93;;;13.33;;
12756;SDS011;31601;48.042;12.240;2023-03-01T01:30:44;22.00;;;14.20;;
12756;SDS011;31601;48.042;12.240;2023-03-01T01:33:11;20.70;;;14.23;;
12756;SDS011;31601;48.042;12.240;2023-03-01T01:35:37;19.20;;;13.30;;
12756;SDS011;31601;48.042;12.240;2023-03-01T01:38:03;19.47;;;14.00;;
12756;SDS011;31601;48.042;12.240;2023-03-01T01:40:30;21.10;;;13.60;;
12756;SDS011;31601;48.042;12.240;2023-03-01T01:42:56;18.27;;;14.20;;
12756;SDS011;31601;48.042;12.240;2023-03-01T01:45:27;19.93;;;14.47;;
12756;SDS011;31601;48.042;12.240;2023-03-01T01:47:58;19.40;;;14.03;;
12756;SDS011;31601;48.042;12.240;2023-03-01T01:50:29;20.00;;;14.33;;
12756;SDS011;31601;48.042;12.240;2023-03-01T01:53:02;19.73;;;14.50;;
12756;SDS011;31601;48.042;12.240;2023-03-01T01:55:34;19.63;;;13.53;;
12756;SDS011;31601;48.042;12.240;2023-03-01T01:58:04;19.73;;;14.27;;
12756;SDS011;31601;48.042;12.240;2023-03-01T02:00:33;20.53;;;14.07;;
12756;SDS011;31601;48.042;12.240;2023-03-01T02:03:02;22.07;;;14.50;;
12756;SDS011;31601;48.042;12.240;2023-03-01T02:05:33;18.33;;;12.83;;
12756;SDS011;31601;48.042;12.240;2023-03-01T02:08:04;19.67;;;14.27;;
12756;SDS011;31601;48.042;12.240;2023-03-01T02:10:32;17.53;;;13.80;;
12756;SDS011;31601;48.042;12.240;2023-03-01T02:13:00;19.60;;;13.83;;
12756;SDS011;31601;48.042;12.240;2023-03-01T02:15:31;18.90;;;12.83;;
12756;SDS011;31601;48.042;12.240;2023-03-01T02:17:58;21.13;;;13.67;;
12756;SDS011;31601;48.042;12.240;2023-03-01T02:20:29;19.83;;;14.47;;
12756;SDS011;31601;48.042;12.240;2023-03-01T02:23:02;21.10;;;15.07;;
12756;SDS011;31601;48.042;12.240;2023-03-01T02:25:33;17.20;;;13.43;;
12756;SDS011;31601;48.042;12.240;2023-03-01T02:28:08;22.13;;;13.93;;
12756;SDS011;31601;48.042;12.240;2023-03-01T02:30:41;19.77;;;14.03;;
12756;SDS011;31601;48.042;12.240;2023-03-01T02:33:37;22.33;;;14.77;;
12756;SDS011;31601;48.042;12.240;2023-03-01T02:36:04;18.90;;;14.03;;
12756;SDS011;31601;48.042;12.240;2023-03-01T02:38:34;17.83;;;13.23;;
12756;SDS011;31601;48.042;12.240;2023-03-01T02:41:00;18.87;;;14.37;;
12756;SDS011;31601;48.042;12.240;2023-03-01T02:43:29;20.17;;;14.10;;
12756;SDS011;31601;48.042;12.240;2023-03-01T02:45:59;20.07;;;14.20;;
12756;SDS011;31601;48.042;12.240;2023-03-01T02:48:38;20.13;;;14.20;;
12756;SDS011;31601;48.042;12.240;2023-03-01T02:51:07;19.20;;;13.47;;
12756;SDS011;31601;48.042;12.240;2023-03-01T02:53:39;21.47;;;14.20;;
12756;SDS011;31601;48.042;12.240;2023-03-01T02:56:11;19.33;;;13.83;;
12756;SDS011;31601;48.042;12.240;2023-03-01T02:58:39;20.40;;;13.70;;
12756;SDS011;31601;48.042;12.240;2023-03-01T03:01:11;23.00;;;14.93;;
12756;SDS011;31601;48.042;12.240;2023-03-01T03:03:40;21.83;;;15.43;;
12756;SDS011;31601;48.042;12.240;2023-03-01T03:06:06;20.40;;;14.70;;
12756;SDS011;31601;48.042;12.240;2023-03-01T03:08:33;20.50;;;15.13;;
12756;SDS011;31601;48.042;12.240;2023-03-01T03:10:59;21.97;;;15.00;;
12756;SDS011;31601;48.042;12.240;2023-03-01T03:13:26;23.00;;;14.67;;
12756;SDS011;31601;48.042;12.240;2023-03-01T03:15:53;20.17;;;15.30;;
12756;SDS011;31601;48.042;12.240;2023-03-01T03:18:22;24.73;;;16.40;;
12756;SDS011;31601;48.042;12.240;2023-03-01T03:20:51;20.93;;;14.90;;
12756;SDS011;31601;48.042;12.240;2023-03-01T03:23:19;22.03;;;14.73;;
12756;SDS011;31601;48.042;12.240;2023-03-01T03:25:47;23.23;;;14.80;;
12756;SDS011;31601;48.042;12.240;2023-03-01T03:28:14;20.50;;;14.93;;
12756;SDS011;31601;48.042;12.240;2023-03-01T03:30:42;18.90;;;14.53;;
12756;SDS011;31601;48.042;12.240;2023-03-01T03:33:09;22.67;;;14.23;;
12756;SDS011;31601;48.042;12.240;2023-03-01T03:35:40;22.27;;;15.47;;
12756;SDS011;31601;48.042;12.240;2023-03-01T03:38:09;26.83;;;15.63;;
12756;SDS011;31601;48.042;12.240;2023-03-01T03:40:42;22.03;;;15.13;;
12756;SDS011;31601;48.042;12.240;2023-03-01T03:43:12;27.87;;;16.73;;
12756;SDS011;31601;48.042;12.240;2023-03-01T03:45:39;21.60;;;15.13;;
12756;SDS011;31601;48.042;12.240;2023-03-01T03:48:07;25.10;;;16.93;;
12756;SDS011;31601;48.042;12.240;2023-03-01T03:50:35;21.83;;;16.37;;
12756;SDS011;31601;48.042;12.240;2023-03-01T03:53:04;22.53;;;16.03;;
12756;SDS011;31601;48.042;12.240;2023-03-01T03:55:32;22.37;;;15.70;;
12756;SDS011;31601;48.042;12.240;2023-03-01T03:57:59;29.50;;;15.93;;
12756;SDS011;31601;48.042;12.240;2023-03-01T04:00:31;24.60;;;16.40;;
12756;SDS011;31601;48.042;12.240;2023-03-01T04:02:59;22.47;;;16.67;;
12756;SDS011;31601;48.042;12.240;2023-03-01T04:05:26;23.67;;;16.67;;
12756;SDS011;31601;48.042;12.240;2023-03-01T04:07:53;28.63;;;16.03;;
12756;SDS011;31601;48.042;12.240;2023-03-01T04:10:27;25.37;;;16.30;;
12756;SDS011;31601;48.042;12.240;2023-03-01T04:12:55;24.80;;;16.23;;
12756;SDS011;31601;48.042;12.240;2023-03-01T04:15:22;23.67;;;16.50;;
12756;SDS011;31601;48.042;12.240;2023-03-01T04:17:50;24.07;;;16.97;;
12756;SDS011;31601;48.042;12.240;2023-03-01T04:20:18;29.13;;;16.53;;
12756;SDS011;31601;48.042;12.240;2023-03-01T04:22:50;23.87;;;15.40;;
12756;SDS011;31601;48.042;12.240;2023-03-01T04:25:18;23.50;;;16.20;;
12756;SDS011;31601;48.042;12.240;2023-03-01T04:27:46;27.77;;;17.50;;
12756;SDS011;31601;48.042;12.240;2023-03-01T04:30:12;24.50;;;17.23;;
12756;SDS011;31601;48.042;12.240;2023-03-01T04:32:39;25.37;;;16.20;;
12756;SDS011;31601;48.042;12.240;2023-03-01T04:35:06;23.53;;;17.03;;
12756;SDS011;31601;48.042;12.240;2023-03-01T04:37:33;32.13;;;16.57;;
12756;SDS011;31601;48.042;12.240;2023-03-01T04:40:00;22.17;;;15.90;;
12756;SDS011;31601;48.042;12.240;2023-03-01T04:42:32;26.13;;;16.90;;
12756;SDS011;31601;48.042;12.240;2023-03-01T04:45:00;25.37;;;16.83;;
12756;SDS011;31601;48.042;12.240;2023-03-01T04:47:27;23.30;;;15.63;;
12756;SDS011;31601;48.042;12.240;2023-03-01T04:49:53;22.90;;;15.97;;
12756;SDS011;31601;48.042;12.240;2023-03-01T04:52:20;26.57;;;17.33;;
12756;SDS011;31601;48.042;12.240;2023-03-01T04:54:46;28.70;;;17.03;;
12756;SDS011;31601;48.042;12.240;2023-03-01T04:57:12;22.80;;;16.00;;
12756;SDS011;31601;48.042;12.240;2023-03-01T04:59:39;24.00;;;15.93;;
12756;SDS011;31601;48.042;12.240;2023-03-01T05:02:07;22.47;;;15.73;;
12756;SDS011;31601;48.042;12.240;2023-03-01T05:04:33;21.60;;;16.00;;
12756;SDS011;31601;48.042;12.240;2023-03-01T05:07:00;22.50;;;15.77;;
12756;SDS011;31601;48.042;12.240;2023-03-01T05:09:26;21.57;;;16.17;;
12756;SDS011;31601;48.042;12.240;2023-03-01T05:11:52;22.40;;;15.90;;
12756;SDS011;31601;48.042;12.240;2023-03-01T05:14:19;25.00;;;16.53;;
12756;SDS011;31601;48.042;12.240;2023-03-01T05:16:45;22.37;;;15.80;;
12756;SDS011;31601;48.042;12.240;2023-03-01T05:19:13;22.47;;;15.67;;
12756;SDS011;31601;48.042;12.240;2023-03-01T05:21:41;27.80;;;17.00;;
12756;SDS011;31601;48.042;12.240;2023-03-01T05:24:21;26.30;;;15.23;;
12756;SDS011;31601;48.042;12.240;2023-03-01T05:26:48;25.30;;;16.50;;
12756;SDS011;31601;48.042;12.240;2023-03-01T05:29:16;25.43;;;16.23;;
12756;SDS011;31601;48.042;12.240;2023-03-01T05:31:44;23.63;;;15.67;;
12756;SDS011;31601;48.042;12.240;2023-03-01T05:34:10;24.47;;;15.80;;
12756;SDS011;31601;48.042;12.240;2023-03-01T05:36:39;24.57;;;15.97;;
12756;SDS011;31601;48.042;12.240;2023-03-01T05:39:05;27.70;;;16.40;;
12756;SDS011;31601;48.042;12.240;2023-03-01T05:41:31;25.83;;;16.13;;
12756;SDS011;31601;48.042;12.240;2023-03-01T05:43:58;22.67;;;14.93;;
12756;SDS011;31601;48.042;12.240;2023-03-01T05:46:25;25.37;;;14.87;;
12756;SDS011;31601;48.042;12.240;2023-03-01T05:48:51;23.07;;;14.37;;
12756;SDS011;31601;48.042;12.240;2023-03-01T05:51:17;23.90;;;16.33;;
12756;SDS011;31601;48.042;12.240;2023-03-01T05:53:45;25.03;;;16.87;;
12756;SDS011;31601;48.042;12.240;2023-03-01T05:56:12;21.83;;;14.60;;
12756;SDS011;31601;48.042;12.240;2023-03-01T05:58:38;24.67;;;15.17;;
12756;SDS011;31601;48.042;12.240;2023-03-01T06:01:04;26.03;;;16.63;;
12756;SDS011;31601;48.042;12.240;2023-03-01T06:03:31;22.93;;;15.37;;
12756;SDS011;31601;48.042;12.240;2023-03-01T06:05:57;22.87;;;15.70;;
12756;SDS011;31601;48.042;12.240;2023-03-01T06:08:24;23.27;;;16.90;;
12756;SDS011;31601;48.042;12.240;2023-03-01T06:10:53;27.40;;;16.70;;
12756;SDS011;31601;48.042;12.240;2023-03-01T06:13:19;26.90;;;16.27;;
12756;SDS011;31601;48.042;12.240;2023-03-01T06:15:46;27.63;;;17.57;;
12756;SDS011;31601;48.042;12.240;2023-03-01T06:18:12;23.93;;;14.87;;
12756;SDS011;31601;48.042;12.240;2023-03-01T06:20:39;26.80;;;16.00;;
12756;SDS011;31601;48.042;12.240;2023-03-01T06:23:05;26.53;;;16.80;;
12756;SDS011;31601;48.042;12.240;2023-03-01T06:25:31;23.97;;;16.63;;
12756;SDS011;31601;48.042;12.240;2023-03-01T06:27:59;24.07;;;15.43;;
12756;SDS011;31601;48.042;12.240;2023-03-01T06:30:26;24.93;;;16.13;;
12756;SDS011;31601;48.042;12.240;2023-03-01T06:32:52;22.50;;;14.20;;
12756;SDS011;31601;48.042;12.240;2023-03-01T06:35:26;19.73;;;12.37;;
12756;SDS011;31601;48.042;12.240;2023-03-01T06:37:54;26.00;;;16.57;;
12756;SDS011;31601;48.042;12.240;2023-03-01T06:40:22;23.43;;;17.00;;
12756;SDS011;31601;48.042;12.240;2023-03-01T06:42:49;27.73;;;16.90;;
12756;SDS011;31601;48.042;12.240;2023-03-01T06:45:18;22.57;;;15.07;;
12756;SDS011;31601;48.042;12.240;2023-03-01T06:47:46;27.40;;;15.47;;
12756;SDS011;31601;48.042;12.240;2023-03-01T06:50:13;26.60;;;15.20;;
12756;SDS011;31601;48.042;12.240;2023-03-01T06:52:40;21.50;;;11.47;;
12756;SDS011;31601;48.042;12.240;2023-03-01T06:55:09;20.73;;;12.57;;
12756;SDS011;31601;48.042;12.240;2023-03-01T06:57:35;25.60;;;15.23;;
12756;SDS011;31601;48.042;12.240;2023-03-01T07:00:02;28.13;;;16.53;;
12756;SDS011;31601;48.042;12.240;2023-03-01T07:02:30;29.87;;;16.53;;
12756;SDS011;31601;48.042;12.240;2023-03-01T07:04:57;25.40;;;17.07;;
12756;SDS011;31601;48.042;12.240;2023-03-01T07:07:23;29.97;;;16.90;;
12756;SDS011;31601;48.042;12.240;2023-03-01T07:09:49;22.53;;;14.47;;
12756;SDS011;31601;48.042;12.240;2023-03-01T07:12:16;25.17;;;16.57;;
12756;SDS011;31601;48.042;12.240;2023-03-01T07:14:43;27.70;;;15.03;;
12756;SDS011;31601;48.042;12.240;2023-03-01T07:17:10;27.27;;;17.20;;
12756;SDS011;31601;48.042;12.240;2023-03-01T07:19:37;29.27;;;17.87;;
12756;SDS011;31601;48.042;12.240;2023-03-01T07:22:04;28.77;;;17.80;;
12756;SDS011;31601;48.042;12.240;2023-03-01T07:24:32;28.80;;;18.93;;
12756;SDS011;31601;48.042;12.240;2023-03-01T07:26:59;23.37;;;16.23;;
12756;SDS011;31601;48.042;12.240;2023-03-01T07:29:25;36.33;;;18.50;;
12756;SDS011;31601;48.042;12.240;2023-03-01T07:31:53;28.10;;;16.80;;
12756;SDS011;31601;48.042;12.240;2023-03-01T07:34:20;25.53;;;17.07;;
12756;SDS011;31601;48.042;12.240;2023-03-01T07:36:48;31.07;;;17.83;;
12756;SDS011;31601;48.042;12.240;2023-03-01T07:39:14;27.90;;;17.73;;
12756;SDS011;31601;48.042;12.240;2023-03-01T07:41:41;29.97;;;18.80;;
12756;SDS011;31601;48.042;12.240;2023-03-01T07:44:09;25.63;;;17.20;;
12756;SDS011;31601;48.042;12.240;2023-03-01T07:46:35;30.33;;;19.03;;
12756;SDS011;31601;48.042;12.240;2023-03-01T07:49:02;30.03;;;19.37;;
12756;SDS011;31601;48.042;12.240;2023-03-01T07:51:29;27.70;;;17.53;;
12756;SDS011;31601;48.042;12.240;2023-03-01T07:53:57;24.17;;;17.00;;
12756;SDS011;31601;48.042;12.240;2023-03-01T07:56:23;22.10;;;15.63;;
12756;SDS011;31601;48.042;12.240;2023-03-01T07:58:50;26.80;;;18.03;;
12756;SDS011;31601;48.042;12.240;2023-03-01T08:01:17;33.23;;;16.33;;
12756;SDS011;31601;48.042;12.240;2023-03-01T08:03:44;25.57;;;15.00;;
12756;SDS011;31601;48.042;12.240;2023-03-01T08:06:12;24.90;;;15.47;;
12756;SDS011;31601;48.042;12.240;2023-03-01T08:08:39;25.50;;;17.23;;
12756;SDS011;31601;48.042;12.240;2023-03-01T08:11:09;22.57;;;14.73;;
12756;SDS011;31601;48.042;12.240;2023-03-01T08:13:38;25.83;;;16.87;;
12756;SDS011;31601;48.042;12.240;2023-03-01T08:16:06;26.20;;;17.43;;
12756;SDS011;31601;48.042;12.240;2023-03-01T08:18:33;22.60;;;13.70;;
12756;SDS011;31601;48.042;12.240;2023-03-01T08:21:03;27.27;;;16.87;;
12756;SDS011;31601;48.042;12.240;2023-03-01T08:23:30;31.30;;;19.37;;
12756;SDS011;31601;48.042;12.240;2023-03-01T08:26:02;44.83;;;21.87;;
12756;SDS011;31601;48.042;12.240;2023-03-01T08:28:32;38.33;;;20.33;;
12756;SDS011;31601;48.042;12.240;2023-03-01T08:30:59;32.93;;;21.67;;
12756;SDS011;31601;48.042;12.240;2023-03-01T08:33:25;26.80;;;16.57;;
12756;SDS011;31601;48.042;12.240;2023-03-01T08:35:52;31.77;;;18.97;;
12756;SDS011;31601;48.042;12.240;2023-03-01T08:38:18;27.77;;;18.67;;
12756;SDS011;31601;48.042;12.240;2023-03-01T08:40:45;26.63;;;17.57;;
12756;SDS011;31601;48.042;12.240;2023-03-01T08:43:11;26.47;;;17.73;;
12756;SDS011;31601;48.042;12.240;2023-03-01T08:45:39;26.60;;;17.17;;
12756;SDS011;31601;48.042;12.240;2023-03-01T08:48:06;29.77;;;18.33;;
12756;SDS011;31601;48.042;12.240;2023-03-01T08:50:32;27.13;;;18.00;;
12756;SDS011;31601;48.042;12.240;2023-03-01T08:52:58;26.70;;;18.27;;
12756;SDS011;31601;48.042;12.240;2023-03-01T08:55:25;27.27;;;18.13;;
12756;SDS011;31601;48.042;12.240;2023-03-01T08:57:51;26.83;;;18.30;;
12756;SDS011;31601;48.042;12.240;2023-03-01T09:00:18;42.97;;;19.50;;
12756;SDS011;31601;48.042;12.240;2023-03-01T09:02:46;30.63;;;19.03;;
12756;SDS011;31601;48.042;12.240;2023-03-01T09:05:13;31.10;;;18.07;;
12756;SDS011;31601;48.042;12.240;2023-03-01T09:07:39;27.17;;;19.00;;
12756;SDS011;31601;48.042;12.240;2023-03-01T09:10:06;27.70;;;18.53;;
12756;SDS011;31601;48.042;12.240;2023-03-01T09:12:33;25.93;;;16.50;;
12756;SDS011;31601;48.042;12.240;2023-03-01T09:14:59;27.80;;;17.83;;
12756;SDS011;31601;48.042;12.240;2023-03-01T09:17:26;30.70;;;18.43;;
12756;SDS011;31601;48.042;12.240;2023-03-01T09:19:54;28.80;;;18.50;;
12756;SDS011;31601;48.042;12.240;2023-03-01T09:22:20;29.13;;;19.77;;
12756;SDS011;31601;48.042;12.240;2023-03-01T09:24:47;39.23;;;23.87;;
12756;SDS011;31601;48.042;12.240;2023-03-01T09:27:13;30.17;;;18.30;;
12756;SDS011;31601;48.042;12.240;2023-03-01T09:29:43;36.60;;;20.33;;
12756;SDS011;31601;48.042;12.240;2023-03-01T09:32:10;31.40;;;20.50;;
12756;SDS011;31601;48.042;12.240;2023-03-01T09:34:36;33.03;;;20.57;;
12756;SDS011;31601;48.042;12.240;2023-03-01T09:37:24;30.43;;;20.43;;
12756;SDS011;31601;48.042;12.240;2023-03-01T09:39:50;27.50;;;17.43;;
12756;SDS011;31601;48.042;12.240;2023-03-01T09:42:17;31.07;;;19.43;;
12756;SDS011;31601;48.042;12.240;2023-03-01T09:44:45;30.87;;;19.50;;
12756;SDS011;31601;48.042;12.240;2023-03-01T09:47:16;31.23;;;19.73;;
12756;SDS011;31601;48.042;12.240;2023-03-01T09:49:45;34.33;;;23.33;;
12756;SDS011;31601;48.042;12.240;2023-03-01T09:52:21;30.37;;;19.00;;
12756;SDS011;31601;48.042;12.240;2023-03-01T09:54:54;29.43;;;20.20;;
12756;SDS011;31601;48.042;12.240;2023-03-01T09:57:25;39.37;;;26.93;;
12756;SDS011;31601;48.042;12.240;2023-03-01T09:59:59;30.47;;;21.07;;
12756;SDS011;31601;48.042;12.240;2023-03-01T10:02:36;32.37;;;21.87;;
12756;SDS011;31601;48.042;12.240;2023-03-01T10:05:14;29.30;;;20.00;;
12756;SDS011;31601;48.042;12.240;2023-03-01T10:07:58;35.17;;;20.80;;
12756;SDS011;31601;48.042;12.240;2023-03-01T10:10:33;32.87;;;19.53;;
12756;SDS011;31601;48.042;12.240;2023-03-01T10:13:01;33.87;;;18.77;;
12756;SDS011;31601;48.042;12.240;2023-03-01T10:15:35;44.43;;;19.23;;
12756;SDS011;31601;48.042;12.240;2023-03-01T10:18:14;28.60;;;19.03;;
12756;SDS011;31601;48.042;12.240;2023-03-01T10:20:46;26.90;;;18.13;;
12756;SDS011;31601;48.042;12.240;2023-03-01T10:23:20;29.30;;;17.60;;
12756;SDS011;31601;48.042;12.240;2023-03-01T10:25:52;27.33;;;18.27;;
12756;SDS011;31601;48.042;12.240;2023-03-01T10:28:29;41.90;;;21.00;;
12756;SDS011;31601;48.042;12.240;2023-03-01T10:31:02;28.47;;;19.03;;
12756;SDS011;31601;48.042;12.240;2023-03-01T10:33:30;32.90;;;20.77;;
12756;SDS011;31601;48.042;12.240;2023-03-01T10:35:58;31.20;;;21.37;;
12756;SDS011;31601;48.042;12.240;2023-03-01T10:38:26;30.50;;;18.80;;
12756;SDS011;31601;48.042;12.240;2023-03-01T10:40:57;26.00;;;19.10;;
12756;SDS011;31601;48.042;12.240;2023-03-01T10:43:27;37.53;;;22.57;;
12756;SDS011;31601;48.042;12.240;2023-03-01T10:45:58;37.47;;;23.63;;
12756;SDS011;31601;48.042;12.240;2023-03-01T10:48:25;27.23;;;19.33;;
12756;SDS011;31601;48.042;12.240;2023-03-01T10:51:04;44.90;;;22.07;;
12756;SDS011;31601;48.042;12.240;2023-03-01T10:53:34;27.60;;;18.90;;
12756;SDS011;31601;48.042;12.240;2023-03-01T10:56:03;27.70;;;18.77;;
12756;SDS011;31601;48.042;12.240;2023-03-01T10:58:31;29.00;;;19.27;;
12756;SDS011;31601;48.042;12.240;2023-03-01T11:01:00;30.23;;;20.27;;
12756;SDS011;31601;48.042;12.240;2023-03-01T11:03:28;29.70;;;20.53;;
12756;SDS011;31601;48.042;12.240;2023-03-01T11:06:00;31.23;;;21.07;;
12756;SDS011;31601;48.042;12.240;2023-03-01T11:08:34;32.87;;;22.47;;
12756;SDS011;31601;48.042;12.240;2023-03-01T11:11:06;30.47;;;20.53;;
12756;SDS011;31601;48.042;12.240;2023-03-01T11:13:46;26.43;;;19.70;;
12756;SDS011;31601;48.042;12.240;2023-03-01T11:16:22;28.63;;;20.10;;
12756;SDS011;31601;48.042;12.240;2023-03-01T11:18:55;28.93;;;20.17;;
12756;SDS011;31601;48.042;12.240;2023-03-01T11:21:28;30.83;;;19.33;;
12756;SDS011;31601;48.042;12.240;2023-03-01T11:23:58;33.00;;;20.33;;
12756;SDS011;31601;48.042;12.240;2023-03-01T11:26:27;25.63;;;19.07;;
12756;SDS011;31601;48.042;12.240;2023-03-01T11:28:58;28.13;;;19.60;;
12756;SDS011;31601;48.042;12.240;2023-03-01T11:31:29;30.00;;;20.47;;
12756;SDS011;31601;48.042;12.240;2023-03-01T11:33:57;26.10;;;19.93;;
12756;SDS011;31601;48.042;12.240;2023-03-01T11:36:30;29.03;;;20.00;;
12756;SDS011;31601;48.042;12.240;2023-03-01T11:39:03;27.80;;;19.63;;
12756;SDS011;31601;48.042;12.240;2023-03-01T11:41:38;30.77;;;20.87;;
12756;SDS011;31601;48.042;12.240;2023-03-01T11:44:10;29.87;;;20.83;;
12756;SDS011;31601;48.042;12.240;2023-03-01T11:46:43;26.93;;;20.00;;
12756;SDS011;31601;48.042;12.240;2023-03-01T11:49:29;27.77;;;20.03;;
12756;SDS011;31601;48.042;12.240;2023-03-01T11:52:14;30.97;;;19.83;;
12756;SDS011;31601;48.042;12.240;2023-03-01T11:54:50;26.00;;;20.70;;
12756;SDS011;31601;48.042;12.240;2023-03-01T11:57:31;30.40;;;20.60;;
12756;SDS011;31601;48.042;12.240;2023-03-01T12:09:11;40.73;;;21.60;;
12756;SDS011;31601;48.042;12.240;2023-03-01T12:11:59;31.87;;;20.43;;
12756;SDS011;31601;48.042;12.240;2023-03-01T12:14:43;29.77;;;20.80;;
12756;SDS011;31601;48.042;12.240;2023-03-01T12:17:21;35.97;;;21.37;;
12756;SDS011;31601;48.042;12.240;2023-03-01T12:20:15;28.83;;;19.30;;
12756;SDS011;31601;48.042;12.240;2023-03-01T12:23:00;30.60;;;21.10;;
12756;SDS011;31601;48.042;12.240;2023-03-01T12:25:41;34.53;;;21.53;;
12756;SDS011;31601;48.042;12.240;2023-03-01T12:28:18;30.93;;;21.47;;
12756;SDS011;31601;48.042;12.240;2023-03-01T12:31:13;28.77;;;19.90;;
12756;SDS011;31601;48.042;12.240;2023-03-01T12:33:57;30.10;;;21.17;;
12756;SDS011;31601;48.042;12.240;2023-03-01T12:36:40;28.40;;;21.60;;
12756;SDS011;31601;48.042;12.240;2023-03-01T12:39:21;34.00;;;22.23;;
12756;SDS011;31601;48.042;12.240;2023-03-01T12:42:01;30.87;;;22.60;;
12756;SDS011;31601;48.042;12.240;2023-03-01T12:44:42;30.10;;;20.77;;
12756;SDS011;31601;48.042;12.240;2023-03-01T12:47:23;36.07;;;21.63;;
12756;SDS011;31601;48.042;12.240;2023-03-01T12:50:01;28.03;;;20.03;;
12756;SDS011;31601;48.042;12.240;2023-03-01T12:52:33;39.50;;;21.13;;
12756;SDS011;31601;48.042;12.240;2023-03-01T12:55:06;30.53;;;21.00;;
12756;SDS011;31601;48.042;12.240;2023-03-01T12:57:45;49.47;;;22.00;;
12756;SDS011;31601;48.042;12.240;2023-03-01T13:00:22;40.90;;;22.17;;
12756;SDS011;31601;48.042;12.240;2023-03-01T13:02:55;32.50;;;20.80;;
12756;SDS011;31601;48.042;12.240;2023-03-01T13:05:31;31.20;;;21.03;;
12756;SDS011;31601;48.042;12.240;2023-03-01T13:08:06;37.70;;;21.83;;
12756;SDS011;31601;48.042;12.240;2023-03-01T13:10:40;28.67;;;21.03;;
12756;SDS011;31601;48.042;12.240;2023-03-01T13:13:14;28.37;;;19.80;;
12756;SDS011;31601;48.042;12.240;2023-03-01T13:15:48;26.93;;;20.73;;
12756;SDS011;31601;48.042;12.240;2023-03-01T13:18:29;33.67;;;20.77;;
12756;SDS011;31601;48.042;12.240;2023-03-01T13:20:57;31.63;;;21.13;;
12756;SDS011;31601;48.042;12.240;2023-03-01T13:23:26;74.00;;;24.37;;
12756;SDS011;31601;48.042;12.240;2023-03-01T13:26:06;27.20;;;20.87;;
12756;SDS011;31601;48.042;12.240;2023-03-01T13:28:40;33.37;;;20.90;;
12756;SDS011;31601;48.042;12.240;2023-03-01T13:37:13;37.93;;;21.93;;
12756;SDS011;31601;48.042;12.240;2023-03-01T13:39:45;39.10;;;21.33;;
12756;SDS011;31601;48.042;12.240;2023-03-01T13:45:00;32.87;;;22.10;;
12756;SDS011;31601;48.042;12.240;2023-03-01T13:47:27;39.83;;;21.43;;
12756;SDS011;31601;48.042;12.240;2023-03-01T13:49:56;27.03;;;20.97;;
12756;SDS011;31601;48.042;12.240;2023-03-01T13:55:15;33.07;;;21.77;;
12756;SDS011;31601;48.042;12.240;2023-03-01T13:57:44;27.63;;;21.20;;
12756;SDS011;31601;48.042;12.240;2023-03-01T14:00:26;32.60;;;20.87;;
12756;SDS011;31601;48.042;12.240;2023-03-01T14:03:04;26.43;;;21.23;;
12756;SDS011;31601;48.042;12.240;2023-03-01T14:05:36;26.23;;;20.80;;
12756;SDS011;31601;48.042;12.240;2023-03-01T14:08:04;34.47;;;21.00;;
12756;SDS011;31601;48.042;12.240;2023-03-01T14:10:32;30.37;;;21.13;;
12756;SDS011;31601;48.042;12.240;2023-03-01T14:13:04;34.73;;;22.23;;
12756;SDS011;31601;48.042;12.240;2023-03-01T14:15:47;42.93;;;22.07;;
12756;SDS011;31601;48.042;12.240;2023-03-01T14:18:24;33.93;;;23.07;;
12756;SDS011;31601;48.042;12.240;2023-03-01T14:20:59;28.67;;;20.30;;
12756;SDS011;31601;48.042;12.240;2023-03-01T14:23:27;35.47;;;24.23;;
12756;SDS011;31601;48.042;12.240;2023-03-01T14:25:55;32.17;;;22.10;;
12756;SDS011;31601;48.042;12.240;2023-03-01T14:28:24;31.57;;;22.13;;
12756;SDS011;31601;48.042;12.240;2023-03-01T14:30:54;40.17;;;24.87;;
12756;SDS011;31601;48.042;12.240;2023-03-01T14:33:23;40.23;;;25.07;;
12756;SDS011;31601;48.042;12.240;2023-03-01T14:35:54;37.37;;;23.20;;
12756;SDS011;31601;48.042;12.240;2023-03-01T14:38:28;48.70;;;23.57;;
12756;SDS011;31601;48.042;12.240;2023-03-01T14:40:58;36.53;;;27.30;;
12756;SDS011;31601;48.042;12.240;2023-03-01T14:43:28;28.03;;;21.10;;
12756;SDS011;31601;48.042;12.240;2023-03-01T14:45:56;30.10;;;21.23;;